Virtual Washington ARTCC

Weather

KBWI 211354Z 33007KT 280V340 10SM FEW044 FEW150 SCT250 31/22 A2996 RMK AO2 SLP144 T03110217
KDCA 211352Z 32008KT 10SM FEW050 SCT250 32/22 A2997 RMK AO2 SLP150 T03170222
KIAD 211352Z 32010KT 9SM FEW040 FEW130 BKN250 30/22 A2998 RMK AO2 SLP149 T03000217
KORF 211351Z AUTO 21006KT 10SM CLR 29/24 A2997 RMK AO2 SLP148 T02940244 TSNO
KRDU 211351Z 00000KT 10SM BKN250 31/22 A3003 RMK AO2 SLP162 T03060217

Events



ZDC CHARLIE EXPLOSION


ZDC Activity

No controllers online.

News



The information contained on all pages of this website is to be used for flight simulation purposes only on the VATSIM network. It is not intended nor should it be used for real world navigation.This site is not affiliated with the FAA, the actual Washington Center or any governing aviation body. All content contained herein is approved only for use on the VATSIM network. ©2016 Virtual Washington ARTCC -- Source Code © 2016-2017 W. Guisbond and R. Rump.